sensor_id;sensor_type;location;lat;lon;timestamp;P1;durP1;ratioP1;P2;durP2;ratioP2
37311;SDS011;23197;53.912;9.138;2022-12-11T00:02:17;22.63;;;10.60;;
37311;SDS011;23197;53.912;9.138;2022-12-11T00:04:42;27.73;;;12.20;;
37311;SDS011;23197;53.912;9.138;2022-12-11T00:07:08;23.87;;;11.17;;
37311;SDS011;23197;53.912;9.138;2022-12-11T00:09:33;22.60;;;11.27;;
37311;SDS011;23197;53.912;9.138;2022-12-11T00:11:59;25.50;;;11.53;;
37311;SDS011;23197;53.912;9.138;2022-12-11T00:14:26;25.77;;;11.43;;
37311;SDS011;23197;53.912;9.138;2022-12-11T00:16:53;27.10;;;11.63;;
37311;SDS011;23197;53.912;9.138;2022-12-11T00:19:18;27.03;;;12.37;;
37311;SDS011;23197;53.912;9.138;2022-12-11T00:21:44;28.90;;;13.77;;
37311;SDS011;23197;53.912;9.138;2022-12-11T00:24:10;26.60;;;11.73;;
37311;SDS011;23197;53.912;9.138;2022-12-11T00:26:35;26.27;;;11.20;;
37311;SDS011;23197;53.912;9.138;2022-12-11T00:29:01;31.03;;;13.80;;
37311;SDS011;23197;53.912;9.138;2022-12-11T00:31:27;26.40;;;12.87;;
37311;SDS011;23197;53.912;9.138;2022-12-11T00:33:52;31.27;;;13.67;;
37311;SDS011;23197;53.912;9.138;2022-12-11T00:36:22;38.53;;;17.77;;
37311;SDS011;23197;53.912;9.138;2022-12-11T00:38:50;31.27;;;14.53;;
37311;SDS011;23197;53.912;9.138;2022-12-11T00:41:15;26.17;;;12.80;;
37311;SDS011;23197;53.912;9.138;2022-12-11T00:43:42;26.17;;;11.67;;
37311;SDS011;23197;53.912;9.138;2022-12-11T00:46:08;27.13;;;12.17;;
37311;SDS011;23197;53.912;9.138;2022-12-11T00:48:34;25.03;;;11.70;;
37311;SDS011;23197;53.912;9.138;2022-12-11T00:51:00;23.10;;;11.37;;
37311;SDS011;23197;53.912;9.138;2022-12-11T00:53:25;27.73;;;11.77;;
37311;SDS011;23197;53.912;9.138;2022-12-11T00:55:51;27.17;;;12.00;;
37311;SDS011;23197;53.912;9.138;2022-12-11T00:58:16;29.00;;;12.67;;
37311;SDS011;23197;53.912;9.138;2022-12-11T01:00:42;26.20;;;12.50;;
37311;SDS011;23197;53.912;9.138;2022-12-11T01:03:09;33.50;;;14.43;;
37311;SDS011;23197;53.912;9.138;2022-12-11T01:05:37;28.00;;;13.23;;
37311;SDS011;23197;53.912;9.138;2022-12-11T01:08:03;28.50;;;13.70;;
37311;SDS011;23197;53.912;9.138;2022-12-11T01:10:28;30.63;;;13.10;;
37311;SDS011;23197;53.912;9.138;2022-12-11T01:12:55;28.90;;;13.67;;
37311;SDS011;23197;53.912;9.138;2022-12-11T01:15:22;27.70;;;13.10;;
37311;SDS011;23197;53.912;9.138;2022-12-11T01:17:49;27.87;;;14.07;;
37311;SDS011;23197;53.912;9.138;2022-12-11T01:20:15;31.50;;;14.03;;
37311;SDS011;23197;53.912;9.138;2022-12-11T01:22:41;30.27;;;13.87;;
37311;SDS011;23197;53.912;9.138;2022-12-11T01:25:07;30.67;;;13.50;;
37311;SDS011;23197;53.912;9.138;2022-12-11T01:27:34;32.07;;;13.37;;
37311;SDS011;23197;53.912;9.138;2022-12-11T01:30:00;31.53;;;14.30;;
37311;SDS011;23197;53.912;9.138;2022-12-11T01:32:26;28.97;;;12.93;;
37311;SDS011;23197;53.912;9.138;2022-12-11T01:34:52;34.27;;;15.37;;
37311;SDS011;23197;53.912;9.138;2022-12-11T01:37:17;32.10;;;14.73;;
37311;SDS011;23197;53.912;9.138;2022-12-11T01:39:42;32.77;;;14.57;;
37311;SDS011;23197;53.912;9.138;2022-12-11T01:42:09;35.93;;;16.97;;
37311;SDS011;23197;53.912;9.138;2022-12-11T01:47:05;36.37;;;16.90;;
37311;SDS011;23197;53.912;9.138;2022-12-11T01:49:30;35.53;;;15.87;;
37311;SDS011;23197;53.912;9.138;2022-12-11T01:52:04;35.97;;;16.83;;
37311;SDS011;23197;53.912;9.138;2022-12-11T01:54:34;37.77;;;16.33;;
37311;SDS011;23197;53.912;9.138;2022-12-11T01:57:09;35.90;;;16.23;;
37311;SDS011;23197;53.912;9.138;2022-12-11T01:59:36;29.87;;;15.80;;
37311;SDS011;23197;53.912;9.138;2022-12-11T02:02:06;32.13;;;14.43;;
37311;SDS011;23197;53.912;9.138;2022-12-11T02:04:43;32.17;;;14.30;;
37311;SDS011;23197;53.912;9.138;2022-12-11T02:07:10;28.83;;;13.27;;
37311;SDS011;23197;53.912;9.138;2022-12-11T02:09:36;33.07;;;15.13;;
37311;SDS011;23197;53.912;9.138;2022-12-11T02:12:14;36.13;;;15.70;;
37311;SDS011;23197;53.912;9.138;2022-12-11T02:20:03;35.73;;;15.33;;
37311;SDS011;23197;53.912;9.138;2022-12-11T02:31:26;28.63;;;12.77;;
37311;SDS011;23197;53.912;9.138;2022-12-11T02:36:44;31.37;;;15.00;;
37311;SDS011;23197;53.912;9.138;2022-12-11T02:39:15;31.10;;;14.50;;
37311;SDS011;23197;53.912;9.138;2022-12-11T02:41:44;32.13;;;15.47;;
37311;SDS011;23197;53.912;9.138;2022-12-11T02:44:14;33.13;;;15.50;;
37311;SDS011;23197;53.912;9.138;2022-12-11T02:46:43;33.50;;;16.17;;
37311;SDS011;23197;53.912;9.138;2022-12-11T02:49:09;35.97;;;16.63;;
37311;SDS011;23197;53.912;9.138;2022-12-11T02:51:38;37.77;;;16.97;;
37311;SDS011;23197;53.912;9.138;2022-12-11T02:54:06;33.83;;;15.53;;
37311;SDS011;23197;53.912;9.138;2022-12-11T02:56:50;35.83;;;16.30;;
37311;SDS011;23197;53.912;9.138;2022-12-11T02:59:23;39.43;;;16.17;;
37311;SDS011;23197;53.912;9.138;2022-12-11T03:01:54;34.70;;;16.43;;
37311;SDS011;23197;53.912;9.138;2022-12-11T03:04:19;35.70;;;17.13;;
37311;SDS011;23197;53.912;9.138;2022-12-11T03:06:49;34.20;;;15.60;;
37311;SDS011;23197;53.912;9.138;2022-12-11T03:09:18;36.50;;;16.30;;
37311;SDS011;23197;53.912;9.138;2022-12-11T03:11:44;34.93;;;16.50;;
37311;SDS011;23197;53.912;9.138;2022-12-11T03:14:10;38.47;;;17.90;;
37311;SDS011;23197;53.912;9.138;2022-12-11T03:16:38;35.00;;;16.90;;
37311;SDS011;23197;53.912;9.138;2022-12-11T03:21:51;35.63;;;16.67;;
37311;SDS011;23197;53.912;9.138;2022-12-11T03:26:53;36.33;;;16.93;;
37311;SDS011;23197;53.912;9.138;2022-12-11T03:29:25;36.33;;;16.15;;
37311;SDS011;23197;53.912;9.138;2022-12-11T03:34:42;33.97;;;14.37;;
37311;SDS011;23197;53.912;9.138;2022-12-11T03:37:11;33.03;;;14.77;;
37311;SDS011;23197;53.912;9.138;2022-12-11T03:39:41;38.57;;;15.83;;
37311;SDS011;23197;53.912;9.138;2022-12-11T03:42:13;41.13;;;16.77;;
37311;SDS011;23197;53.912;9.138;2022-12-11T03:44:42;36.57;;;16.50;;
37311;SDS011;23197;53.912;9.138;2022-12-11T03:47:11;32.77;;;15.00;;
37311;SDS011;23197;53.912;9.138;2022-12-11T03:49:41;39.13;;;16.60;;
37311;SDS011;23197;53.912;9.138;2022-12-11T03:52:09;34.07;;;14.97;;
37311;SDS011;23197;53.912;9.138;2022-12-11T03:54:37;34.23;;;15.47;;
37311;SDS011;23197;53.912;9.138;2022-12-11T03:57:04;33.40;;;14.53;;
37311;SDS011;23197;53.912;9.138;2022-12-11T03:59:31;35.33;;;14.47;;
37311;SDS011;23197;53.912;9.138;2022-12-11T04:01:57;35.53;;;15.77;;
37311;SDS011;23197;53.912;9.138;2022-12-11T04:04:23;35.93;;;17.07;;
37311;SDS011;23197;53.912;9.138;2022-12-11T04:06:48;38.47;;;17.20;;
37311;SDS011;23197;53.912;9.138;2022-12-11T04:09:14;37.53;;;15.87;;
37311;SDS011;23197;53.912;9.138;2022-12-11T04:11:39;35.47;;;15.43;;
37311;SDS011;23197;53.912;9.138;2022-12-11T04:14:13;34.97;;;15.47;;
37311;SDS011;23197;53.912;9.138;2022-12-11T04:16:57;31.00;;;13.97;;
37311;SDS011;23197;53.912;9.138;2022-12-11T04:19:24;33.10;;;14.80;;
37311;SDS011;23197;53.912;9.138;2022-12-11T04:22:12;38.93;;;16.43;;
37311;SDS011;23197;53.912;9.138;2022-12-11T04:24:58;36.10;;;16.00;;
37311;SDS011;23197;53.912;9.138;2022-12-11T04:27:28;37.07;;;15.80;;
37311;SDS011;23197;53.912;9.138;2022-12-11T04:30:13;32.30;;;15.23;;
37311;SDS011;23197;53.912;9.138;2022-12-11T04:32:49;34.60;;;15.17;;
37311;SDS011;23197;53.912;9.138;2022-12-11T04:35:15;38.53;;;16.03;;
37311;SDS011;23197;53.912;9.138;2022-12-11T04:37:41;34.87;;;15.80;;
37311;SDS011;23197;53.912;9.138;2022-12-11T04:40:08;35.67;;;16.40;;
37311;SDS011;23197;53.912;9.138;2022-12-11T04:42:35;34.27;;;15.47;;
37311;SDS011;23197;53.912;9.138;2022-12-11T04:45:01;34.80;;;15.90;;
37311;SDS011;23197;53.912;9.138;2022-12-11T04:47:26;40.73;;;17.27;;
37311;SDS011;23197;53.912;9.138;2022-12-11T04:49:52;37.07;;;17.40;;
37311;SDS011;23197;53.912;9.138;2022-12-11T04:52:18;36.17;;;16.63;;
37311;SDS011;23197;53.912;9.138;2022-12-11T04:54:43;37.97;;;16.77;;
37311;SDS011;23197;53.912;9.138;2022-12-11T04:57:09;37.63;;;16.60;;
37311;SDS011;23197;53.912;9.138;2022-12-11T04:59:35;37.63;;;16.30;;
37311;SDS011;23197;53.912;9.138;2022-12-11T05:02:01;35.80;;;16.60;;
37311;SDS011;23197;53.912;9.138;2022-12-11T05:04:33;38.67;;;16.77;;
37311;SDS011;23197;53.912;9.138;2022-12-11T05:06:59;35.80;;;17.07;;
37311;SDS011;23197;53.912;9.138;2022-12-11T05:09:25;38.63;;;17.40;;
37311;SDS011;23197;53.912;9.138;2022-12-11T05:11:51;35.13;;;17.20;;
37311;SDS011;23197;53.912;9.138;2022-12-11T05:14:17;35.93;;;15.80;;
37311;SDS011;23197;53.912;9.138;2022-12-11T05:16:43;35.53;;;15.93;;
37311;SDS011;23197;53.912;9.138;2022-12-11T05:19:09;39.73;;;18.07;;
37311;SDS011;23197;53.912;9.138;2022-12-11T05:21:34;36.13;;;16.93;;
37311;SDS011;23197;53.912;9.138;2022-12-11T05:24:00;33.50;;;17.10;;
37311;SDS011;23197;53.912;9.138;2022-12-11T05:26:25;40.23;;;17.97;;
37311;SDS011;23197;53.912;9.138;2022-12-11T05:28:52;40.10;;;18.43;;
37311;SDS011;23197;53.912;9.138;2022-12-11T05:31:20;38.93;;;17.80;;
37311;SDS011;23197;53.912;9.138;2022-12-11T05:33:47;36.17;;;17.53;;
37311;SDS011;23197;53.912;9.138;2022-12-11T05:36:15;41.40;;;18.73;;
37311;SDS011;23197;53.912;9.138;2022-12-11T05:38:49;41.83;;;17.73;;
37311;SDS011;23197;53.912;9.138;2022-12-11T05:41:16;35.00;;;15.87;;
37311;SDS011;23197;53.912;9.138;2022-12-11T05:43:43;33.40;;;16.63;;
37311;SDS011;23197;53.912;9.138;2022-12-11T05:46:10;38.43;;;18.27;;
37311;SDS011;23197;53.912;9.138;2022-12-11T05:48:37;37.47;;;17.03;;
37311;SDS011;23197;53.912;9.138;2022-12-11T05:51:03;35.90;;;17.20;;
37311;SDS011;23197;53.912;9.138;2022-12-11T05:53:30;41.57;;;18.30;;
37311;SDS011;23197;53.912;9.138;2022-12-11T05:56:03;37.57;;;16.60;;
37311;SDS011;23197;53.912;9.138;2022-12-11T05:58:33;35.10;;;16.90;;
37311;SDS011;23197;53.912;9.138;2022-12-11T06:00:59;35.83;;;16.33;;
37311;SDS011;23197;53.912;9.138;2022-12-11T06:03:25;33.60;;;16.10;;
37311;SDS011;23197;53.912;9.138;2022-12-11T06:05:51;35.20;;;17.00;;
37311;SDS011;23197;53.912;9.138;2022-12-11T06:08:16;35.60;;;15.50;;
37311;SDS011;23197;53.912;9.138;2022-12-11T06:10:45;35.60;;;17.27;;
37311;SDS011;23197;53.912;9.138;2022-12-11T06:13:14;37.97;;;15.77;;
37311;SDS011;23197;53.912;9.138;2022-12-11T06:15:40;39.40;;;16.73;;
37311;SDS011;23197;53.912;9.138;2022-12-11T06:18:06;32.87;;;15.77;;
37311;SDS011;23197;53.912;9.138;2022-12-11T06:20:32;35.37;;;16.30;;
37311;SDS011;23197;53.912;9.138;2022-12-11T06:22:59;37.47;;;17.80;;
37311;SDS011;23197;53.912;9.138;2022-12-11T06:25:25;37.47;;;16.83;;
37311;SDS011;23197;53.912;9.138;2022-12-11T06:27:50;37.37;;;16.83;;
37311;SDS011;23197;53.912;9.138;2022-12-11T06:30:16;36.60;;;16.07;;
37311;SDS011;23197;53.912;9.138;2022-12-11T06:32:42;37.23;;;17.27;;
37311;SDS011;23197;53.912;9.138;2022-12-11T06:35:08;35.57;;;16.70;;
37311;SDS011;23197;53.912;9.138;2022-12-11T06:37:34;37.33;;;17.77;;
37311;SDS011;23197;53.912;9.138;2022-12-11T06:40:00;37.03;;;16.37;;
37311;SDS011;23197;53.912;9.138;2022-12-11T06:42:28;34.97;;;16.53;;
37311;SDS011;23197;53.912;9.138;2022-12-11T06:44:56;38.97;;;17.53;;
37311;SDS011;23197;53.912;9.138;2022-12-11T06:47:29;38.63;;;17.00;;
37311;SDS011;23197;53.912;9.138;2022-12-11T06:49:56;39.90;;;17.43;;
37311;SDS011;23197;53.912;9.138;2022-12-11T06:52:22;36.23;;;16.90;;
37311;SDS011;23197;53.912;9.138;2022-12-11T06:54:49;34.97;;;16.50;;
37311;SDS011;23197;53.912;9.138;2022-12-11T06:57:15;32.80;;;14.57;;
37311;SDS011;23197;53.912;9.138;2022-12-11T06:59:41;35.43;;;15.00;;
37311;SDS011;23197;53.912;9.138;2022-12-11T07:02:09;34.63;;;15.37;;
37311;SDS011;23197;53.912;9.138;2022-12-11T07:04:37;36.50;;;15.90;;
37311;SDS011;23197;53.912;9.138;2022-12-11T07:07:03;38.33;;;16.47;;
37311;SDS011;23197;53.912;9.138;2022-12-11T07:09:28;37.07;;;15.97;;
37311;SDS011;23197;53.912;9.138;2022-12-11T07:11:54;35.10;;;15.97;;
37311;SDS011;23197;53.912;9.138;2022-12-11T07:14:19;37.97;;;17.03;;
37311;SDS011;23197;53.912;9.138;2022-12-11T07:16:44;36.87;;;16.37;;
37311;SDS011;23197;53.912;9.138;2022-12-11T07:19:10;32.20;;;15.13;;
37311;SDS011;23197;53.912;9.138;2022-12-11T07:21:36;36.60;;;15.07;;
37311;SDS011;23197;53.912;9.138;2022-12-11T07:24:01;33.57;;;15.87;;
37311;SDS011;23197;53.912;9.138;2022-12-11T07:26:27;33.03;;;14.83;;
37311;SDS011;23197;53.912;9.138;2022-12-11T07:28:55;32.77;;;15.37;;
37311;SDS011;23197;53.912;9.138;2022-12-11T07:31:22;33.97;;;15.00;;
37311;SDS011;23197;53.912;9.138;2022-12-11T07:33:53;36.37;;;15.40;;
37311;SDS011;23197;53.912;9.138;2022-12-11T07:36:19;34.40;;;15.53;;
37311;SDS011;23197;53.912;9.138;2022-12-11T07:38:45;32.73;;;15.83;;
37311;SDS011;23197;53.912;9.138;2022-12-11T07:41:11;35.03;;;16.80;;
37311;SDS011;23197;53.912;9.138;2022-12-11T07:43:38;37.30;;;15.93;;
37311;SDS011;23197;53.912;9.138;2022-12-11T07:46:05;33.67;;;16.17;;
37311;SDS011;23197;53.912;9.138;2022-12-11T07:48:36;37.33;;;16.47;;
37311;SDS011;23197;53.912;9.138;2022-12-11T07:51:10;34.87;;;16.63;;
37311;SDS011;23197;53.912;9.138;2022-12-11T07:53:45;34.07;;;16.60;;
37311;SDS011;23197;53.912;9.138;2022-12-11T07:56:12;31.80;;;15.27;;
37311;SDS011;23197;53.912;9.138;2022-12-11T07:58:38;35.70;;;15.30;;
37311;SDS011;23197;53.912;9.138;2022-12-11T08:01:14;37.53;;;16.87;;
37311;SDS011;23197;53.912;9.138;2022-12-11T08:03:41;34.43;;;15.80;;
37311;SDS011;23197;53.912;9.138;2022-12-11T08:06:07;36.90;;;16.80;;
37311;SDS011;23197;53.912;9.138;2022-12-11T08:08:34;35.40;;;15.37;;
37311;SDS011;23197;53.912;9.138;2022-12-11T08:11:02;34.53;;;14.77;;
37311;SDS011;23197;53.912;9.138;2022-12-11T08:13:29;34.13;;;15.43;;
37311;SDS011;23197;53.912;9.138;2022-12-11T08:15:55;33.07;;;14.93;;
37311;SDS011;23197;53.912;9.138;2022-12-11T08:18:20;36.07;;;14.97;;
37311;SDS011;23197;53.912;9.138;2022-12-11T08:20:46;34.70;;;15.60;;
37311;SDS011;23197;53.912;9.138;2022-12-11T08:23:11;35.63;;;14.80;;
37311;SDS011;23197;53.912;9.138;2022-12-11T08:25:37;30.70;;;13.77;;
37311;SDS011;23197;53.912;9.138;2022-12-11T08:28:03;35.93;;;15.53;;
37311;SDS011;23197;53.912;9.138;2022-12-11T08:30:30;33.23;;;14.37;;
37311;SDS011;23197;53.912;9.138;2022-12-11T08:32:56;35.30;;;15.70;;
37311;SDS011;23197;53.912;9.138;2022-12-11T08:35:21;32.73;;;15.03;;
37311;SDS011;23197;53.912;9.138;2022-12-11T08:37:47;32.80;;;14.93;;
37311;SDS011;23197;53.912;9.138;2022-12-11T08:40:12;33.67;;;14.43;;
37311;SDS011;23197;53.912;9.138;2022-12-11T08:42:38;32.17;;;13.97;;
37311;SDS011;23197;53.912;9.138;2022-12-11T08:45:04;33.23;;;14.60;;
37311;SDS011;23197;53.912;9.138;2022-12-11T08:47:30;31.83;;;15.03;;
37311;SDS011;23197;53.912;9.138;2022-12-11T08:49:55;31.93;;;13.50;;
37311;SDS011;23197;53.912;9.138;2022-12-11T08:52:21;33.73;;;15.37;;
37311;SDS011;23197;53.912;9.138;2022-12-11T08:54:47;32.87;;;16.20;;
37311;SDS011;23197;53.912;9.138;2022-12-11T08:57:12;35.37;;;15.30;;
37311;SDS011;23197;53.912;9.138;2022-12-11T08:59:39;35.83;;;16.57;;
37311;SDS011;23197;53.912;9.138;2022-12-11T09:02:04;37.07;;;16.83;;
37311;SDS011;23197;53.912;9.138;2022-12-11T09:04:30;35.03;;;15.77;;
37311;SDS011;23197;53.912;9.138;2022-12-11T09:06:56;32.93;;;14.70;;
37311;SDS011;23197;53.912;9.138;2022-12-11T09:09:21;35.47;;;15.27;;
37311;SDS011;23197;53.912;9.138;2022-12-11T09:11:47;32.80;;;14.47;;
37311;SDS011;23197;53.912;9.138;2022-12-11T09:14:13;32.93;;;15.63;;
37311;SDS011;23197;53.912;9.138;2022-12-11T09:16:40;34.87;;;15.20;;
37311;SDS011;23197;53.912;9.138;2022-12-11T09:19:06;34.73;;;14.47;;
37311;SDS011;23197;53.912;9.138;2022-12-11T09:21:33;38.37;;;16.10;;
37311;SDS011;23197;53.912;9.138;2022-12-11T09:23:59;35.63;;;14.27;;
37311;SDS011;23197;53.912;9.138;2022-12-11T09:26:25;32.17;;;15.23;;
37311;SDS011;23197;53.912;9.138;2022-12-11T09:28:53;32.47;;;15.27;;
37311;SDS011;23197;53.912;9.138;2022-12-11T09:31:23;36.10;;;14.70;;
37311;SDS011;23197;53.912;9.138;2022-12-11T09:33:53;34.47;;;14.47;;
37311;SDS011;23197;53.912;9.138;2022-12-11T09:36:19;34.40;;;15.03;;
37311;SDS011;23197;53.912;9.138;2022-12-11T09:38:45;35.90;;;14.57;;
37311;SDS011;23197;53.912;9.138;2022-12-11T09:41:20;32.00;;;14.73;;
37311;SDS011;23197;53.912;9.138;2022-12-11T09:46:32;31.67;;;13.63;;
37311;SDS011;23197;53.912;9.138;2022-12-11T09:48:59;27.37;;;12.17;;
37311;SDS011;23197;53.912;9.138;2022-12-11T09:51:38;29.77;;;13.33;;
37311;SDS011;23197;53.912;9.138;2022-12-11T09:54:08;29.57;;;12.67;;
37311;SDS011;23197;53.912;9.138;2022-12-11T10:01:45;30.33;;;13.50;;
37311;SDS011;23197;53.912;9.138;2022-12-11T10:17:33;32.40;;;14.57;;
37311;SDS011;23197;53.912;9.138;2022-12-11T10:20:21;31.17;;;13.47;;
37311;SDS011;23197;53.912;9.138;2022-12-11T10:22:51;37.30;;;15.70;;
37311;SDS011;23197;53.912;9.138;2022-12-11T10:27:45;31.87;;;14.83;;
37311;SDS011;23197;53.912;9.138;2022-12-11T10:30:21;29.60;;;13.80;;
37311;SDS011;23197;53.912;9.138;2022-12-11T10:38:10;27.60;;;12.37;;
37311;SDS011;23197;53.912;9.138;2022-12-11T10:40:47;30.23;;;12.93;;
37311;SDS011;23197;53.912;9.138;2022-12-11T10:43:17;25.33;;;11.93;;
37311;SDS011;23197;53.912;9.138;2022-12-11T10:46:01;28.60;;;13.30;;
37311;SDS011;23197;53.912;9.138;2022-12-11T10:48:27;28.83;;;14.17;;
37311;SDS011;23197;53.912;9.138;2022-12-11T10:50:54;30.20;;;13.80;;
37311;SDS011;23197;53.912;9.138;2022-12-11T10:53:22;29.73;;;13.53;;
37311;SDS011;23197;53.912;9.138;2022-12-11T10:55:48;30.50;;;13.70;;
37311;SDS011;23197;53.912;9.138;2022-12-11T10:58:18;29.57;;;13.90;;
37311;SDS011;23197;53.912;9.138;2022-12-11T11:00:48;31.37;;;14.30;;
37311;SDS011;23197;53.912;9.138;2022-12-11T11:06:21;29.80;;;14.30;;
37311;SDS011;23197;53.912;9.138;2022-12-11T11:08:49;30.33;;;13.97;;
37311;SDS011;23197;53.912;9.138;2022-12-11T11:13:47;30.57;;;14.07;;
37311;SDS011;23197;53.912;9.138;2022-12-11T11:16:14;30.83;;;14.20;;
37311;SDS011;23197;53.912;9.138;2022-12-11T11:18:47;33.20;;;14.90;;
37311;SDS011;23197;53.912;9.138;2022-12-11T11:21:16;31.40;;;14.17;;
37311;SDS011;23197;53.912;9.138;2022-12-11T11:23:43;32.50;;;13.73;;
37311;SDS011;23197;53.912;9.138;2022-12-11T11:26:09;35.20;;;15.27;;
37311;SDS011;23197;53.912;9.138;2022-12-11T11:28:36;30.67;;;14.57;;
37311;SDS011;23197;53.912;9.138;2022-12-11T11:31:06;33.37;;;14.77;;
37311;SDS011;23197;53.912;9.138;2022-12-11T11:33:35;29.53;;;13.27;;
37311;SDS011;23197;53.912;9.138;2022-12-11T11:36:16;28.00;;;12.60;;
37311;SDS011;23197;53.912;9.138;2022-12-11T11:38:47;30.50;;;13.50;;
37311;SDS011;23197;53.912;9.138;2022-12-11T11:41:28;28.63;;;13.13;;
37311;SDS011;23197;53.912;9.138;2022-12-11T11:44:03;28.37;;;13.47;;
37311;SDS011;23197;53.912;9.138;2022-12-11T11:46:32;30.73;;;12.83;;
37311;SDS011;23197;53.912;9.138;2022-12-11T11:49:09;29.50;;;12.70;;
37311;SDS011;23197;53.912;9.138;2022-12-11T11:57:00;27.37;;;12.77;;
37311;SDS011;23197;53.912;9.138;2022-12-11T11:59:38;29.07;;;12.50;;
37311;SDS011;23197;53.912;9.138;2022-12-11T12:02:17;28.23;;;12.60;;
37311;SDS011;23197;53.912;9.138;2022-12-11T12:04:44;30.10;;;12.83;;
37311;SDS011;23197;53.912;9.138;2022-12-11T12:16:03;25.33;;;12.00;;
37311;SDS011;23197;53.912;9.138;2022-12-11T12:21:24;31.00;;;13.23;;
37311;SDS011;23197;53.912;9.138;2022-12-11T12:32:14;27.73;;;12.18;;
37311;SDS011;23197;53.912;9.138;2022-12-11T12:38:04;27.93;;;12.70;;
37311;SDS011;23197;53.912;9.138;2022-12-11T12:48:52;24.92;;;10.52;;
37311;SDS011;23197;53.912;9.138;2022-12-11T12:51:21;27.00;;;11.13;;
37311;SDS011;23197;53.912;9.138;2022-12-11T12:53:54;28.33;;;12.07;;
37311;SDS011;23197;53.912;9.138;2022-12-11T12:56:23;30.00;;;12.53;;
37311;SDS011;23197;53.912;9.138;2022-12-11T12:58:50;29.63;;;12.73;;
37311;SDS011;23197;53.912;9.138;2022-12-11T13:01:17;27.07;;;11.83;;
37311;SDS011;23197;53.912;9.138;2022-12-11T13:03:53;25.87;;;11.13;;
37311;SDS011;23197;53.912;9.138;2022-12-11T13:11:47;33.13;;;14.07;;
37311;SDS011;23197;53.912;9.138;2022-12-11T13:16:43;32.00;;;15.87;;
37311;SDS011;23197;53.912;9.138;2022-12-11T13:21:42;29.07;;;13.57;;
37311;SDS011;23197;53.912;9.138;2022-12-11T13:26:48;30.87;;;15.00;;
37311;SDS011;23197;53.912;9.138;2022-12-11T13:29:27;26.40;;;12.33;;
37311;SDS011;23197;53.912;9.138;2022-12-11T13:31:58;27.97;;;13.03;;
37311;SDS011;23197;53.912;9.138;2022-12-11T13:34:27;27.23;;;12.10;;
37311;SDS011;23197;53.912;9.138;2022-12-11T13:36:56;28.70;;;12.37;;
37311;SDS011;23197;53.912;9.138;2022-12-11T13:39:23;25.60;;;11.93;;
37311;SDS011;23197;53.912;9.138;2022-12-11T13:41:52;31.10;;;13.20;;
37311;SDS011;23197;53.912;9.138;2022-12-11T13:44:23;25.93;;;12.10;;
37311;SDS011;23197;53.912;9.138;2022-12-11T13:46:52;26.37;;;11.43;;
37311;SDS011;23197;53.912;9.138;2022-12-11T13:49:23;27.00;;;11.73;;
37311;SDS011;23197;53.912;9.138;2022-12-11T13:51:56;22.63;;;10.40;;
37311;SDS011;23197;53.912;9.138;2022-12-11T13:54:24;26.87;;;12.37;;
37311;SDS011;23197;53.912;9.138;2022-12-11T13:59:27;30.27;;;13.17;;
37311;SDS011;23197;53.912;9.138;2022-12-11T14:01:57;25.73;;;11.18;;
37311;SDS011;23197;53.912;9.138;2022-12-11T14:06:53;22.93;;;9.97;;
37311;SDS011;23197;53.912;9.138;2022-12-11T14:09:21;23.60;;;10.53;;
37311;SDS011;23197;53.912;9.138;2022-12-11T14:11:50;23.20;;;10.50;;
37311;SDS011;23197;53.912;9.138;2022-12-11T14:14:20;22.00;;;10.10;;
37311;SDS011;23197;53.912;9.138;2022-12-11T14:16:49;24.57;;;10.67;;
37311;SDS011;23197;53.912;9.138;2022-12-11T14:19:17;20.63;;;9.70;;
37311;SDS011;23197;53.912;9.138;2022-12-11T14:21:58;24.93;;;10.33;;
37311;SDS011;23197;53.912;9.138;2022-12-11T14:24:26;25.57;;;11.30;;
37311;SDS011;23197;53.912;9.138;2022-12-11T14:26:52;24.43;;;11.00;;
37311;SDS011;23197;53.912;9.138;2022-12-11T14:29:26;24.17;;;10.93;;
37311;SDS011;23197;53.912;9.138;2022-12-11T14:31:56;28.03;;;11.40;;
37311;SDS011;23197;53.912;9.138;2022-12-11T14:34:40;23.73;;;10.07;;
37311;SDS011;23197;53.912;9.138;2022-12-11T14:37:09;21.35;;;9.57;;
37311;SDS011;23197;53.912;9.138;2022-12-11T14:42:32;23.63;;;10.23;;
37311;SDS011;23197;53.912;9.138;2022-12-11T14:47:40;26.03;;;10.87;;
37311;SDS011;23197;53.912;9.138;2022-12-11T14:50:13;25.07;;;10.70;;
37311;SDS011;23197;53.912;9.138;2022-12-11T14:53:30;23.90;;;10.37;;
37311;SDS011;23197;53.912;9.138;2022-12-11T14:56:07;23.97;;;10.83;;
37311;SDS011;23197;53.912;9.138;2022-12-11T14:58:41;29.50;;;11.10;;
37311;SDS011;23197;53.912;9.138;2022-12-11T15:01:31;24.90;;;10.30;;
37311;SDS011;23197;53.912;9.138;2022-12-11T15:06:30;23.63;;;10.40;;
37311;SDS011;23197;53.912;9.138;2022-12-11T15:09:08;24.07;;;10.10;;
37311;SDS011;23197;53.912;9.138;2022-12-11T15:11:55;25.30;;;10.53;;
37311;SDS011;23197;53.912;9.138;2022-12-11T15:14:22;25.07;;;10.37;;
37311;SDS011;23197;53.912;9.138;2022-12-11T15:16:50;27.20;;;10.93;;
37311;SDS011;23197;53.912;9.138;2022-12-11T15:19:36;28.33;;;10.90;;
37311;SDS011;23197;53.912;9.138;2022-12-11T15:22:04;26.00;;;10.57;;
37311;SDS011;23197;53.912;9.138;2022-12-11T15:24:36;39.73;;;14.37;;
37311;SDS011;23197;53.912;9.138;2022-12-11T15:27:04;27.97;;;12.30;;
37311;SDS011;23197;53.912;9.138;2022-12-11T15:29:35;26.27;;;10.13;;
37311;SDS011;23197;53.912;9.138;2022-12-11T15:34:44;33.40;;;12.90;;
37311;SDS011;23197;53.912;9.138;2022-12-11T15:37:17;41.80;;;15.33;;
37311;SDS011;23197;53.912;9.138;2022-12-11T15:39:43;36.13;;;14.17;;
37311;SDS011;23197;53.912;9.138;2022-12-11T15:42:08;35.90;;;14.83;;
37311;SDS011;23197;53.912;9.138;2022-12-11T15:44:37;33.50;;;13.47;;
37311;SDS011;23197;53.912;9.138;2022-12-11T15:47:12;24.33;;;10.33;;
37311;SDS011;23197;53.912;9.138;2022-12-11T15:49:38;30.83;;;11.80;;
37311;SDS011;23197;53.912;9.138;2022-12-11T15:52:03;38.97;;;16.03;;
37311;SDS011;23197;53.912;9.138;2022-12-11T15:54:29;37.63;;;14.80;;
37311;SDS011;23197;53.912;9.138;2022-12-11T15:56:54;34.37;;;14.97;;
37311;SDS011;23197;53.912;9.138;2022-12-11T15:59:20;33.10;;;14.17;;
37311;SDS011;23197;53.912;9.138;2022-12-11T16:01:46;35.00;;;15.07;;
37311;SDS011;23197;53.912;9.138;2022-12-11T16:04:11;37.10;;;15.37;;
37311;SDS011;23197;53.912;9.138;2022-12-11T16:06:37;32.70;;;14.63;;
37311;SDS011;23197;53.912;9.138;2022-12-11T16:09:09;34.10;;;13.03;;
37311;SDS011;23197;53.912;9.138;2022-12-11T16:11:34;33.07;;;14.67;;
37311;SDS011;23197;53.912;9.138;2022-12-11T16:14:00;32.17;;;14.13;;
37311;SDS011;23197;53.912;9.138;2022-12-11T16:16:28;32.47;;;12.87;;
37311;SDS011;23197;53.912;9.138;2022-12-11T16:18:54;31.57;;;14.00;;
37311;SDS011;23197;53.912;9.138;2022-12-11T16:21:20;34.83;;;15.33;;
37311;SDS011;23197;53.912;9.138;2022-12-11T16:23:46;31.57;;;14.27;;
37311;SDS011;23197;53.912;9.138;2022-12-11T16:26:11;31.40;;;15.00;;
37311;SDS011;23197;53.912;9.138;2022-12-11T16:28:38;35.47;;;13.83;;
37311;SDS011;23197;53.912;9.138;2022-12-11T16:31:08;37.33;;;13.60;;
37311;SDS011;23197;53.912;9.138;2022-12-11T16:33:38;32.07;;;14.10;;
37311;SDS011;23197;53.912;9.138;2022-12-11T16:36:16;31.27;;;12.73;;
37311;SDS011;23197;53.912;9.138;2022-12-11T16:38:44;33.40;;;14.00;;